sensor_id;sensor_type;location;lat;lon;timestamp;P1;durP1;ratioP1;P2;durP2;ratioP2
24751;SDS011;27246;52.376;4.628;2022-08-06T00:01:27;2.08;;;0.55;;
24751;SDS011;27246;52.376;4.628;2022-08-06T00:06:31;5.43;;;0.60;;
24751;SDS011;27246;52.376;4.628;2022-08-06T00:11:34;2.13;;;0.60;;
24751;SDS011;27246;52.376;4.628;2022-08-06T00:16:39;2.78;;;0.65;;
24751;SDS011;27246;52.376;4.628;2022-08-06T00:21:42;1.33;;;0.43;;
24751;SDS011;27246;52.376;4.628;2022-08-06T00:26:44;3.67;;;0.43;;
24751;SDS011;27246;52.376;4.628;2022-08-06T00:32:05;2.13;;;0.50;;
24751;SDS011;27246;52.376;4.628;2022-08-06T00:37:12;3.75;;;0.90;;
24751;SDS011;27246;52.376;4.628;2022-08-06T00:42:19;2.17;;;0.90;;
24751;SDS011;27246;52.376;4.628;2022-08-06T00:47:21;4.38;;;0.70;;
24751;SDS011;27246;52.376;4.628;2022-08-06T00:52:42;2.35;;;0.80;;
24751;SDS011;27246;52.376;4.628;2022-08-06T00:57:47;3.40;;;0.60;;
24751;SDS011;27246;52.376;4.628;2022-08-06T01:02:51;2.85;;;0.60;;
24751;SDS011;27246;52.376;4.628;2022-08-06T01:07:53;1.85;;;0.68;;
24751;SDS011;27246;52.376;4.628;2022-08-06T01:12:58;2.67;;;0.70;;
24751;SDS011;27246;52.376;4.628;2022-08-06T01:18:12;2.95;;;0.80;;
24751;SDS011;27246;52.376;4.628;2022-08-06T01:28:31;2.00;;;0.90;;
24751;SDS011;27246;52.376;4.628;2022-08-06T01:34:00;2.00;;;0.65;;
24751;SDS011;27246;52.376;4.628;2022-08-06T01:39:08;0.75;;;0.38;;
24751;SDS011;27246;52.376;4.628;2022-08-06T01:44:37;3.70;;;1.85;;
24751;SDS011;27246;52.376;4.628;2022-08-06T01:49:49;3.15;;;0.70;;
24751;SDS011;27246;52.376;4.628;2022-08-06T01:55:08;1.58;;;0.80;;
24751;SDS011;27246;52.376;4.628;2022-08-06T02:00:18;2.10;;;0.70;;
24751;SDS011;27246;52.376;4.628;2022-08-06T02:05:29;3.90;;;0.88;;
24751;SDS011;27246;52.376;4.628;2022-08-06T02:10:47;1.27;;;0.60;;
24751;SDS011;27246;52.376;4.628;2022-08-06T02:15:52;2.25;;;0.70;;
24751;SDS011;27246;52.376;4.628;2022-08-06T02:21:01;1.17;;;0.70;;
24751;SDS011;27246;52.376;4.628;2022-08-06T02:26:26;1.73;;;0.50;;
24751;SDS011;27246;52.376;4.628;2022-08-06T02:31:33;1.48;;;0.70;;
24751;SDS011;27246;52.376;4.628;2022-08-06T02:36:57;1.13;;;0.65;;
24751;SDS011;27246;52.376;4.628;2022-08-06T02:42:20;1.55;;;0.80;;
24751;SDS011;27246;52.376;4.628;2022-08-06T02:47:59;0.70;;;0.47;;
24751;SDS011;27246;52.376;4.628;2022-08-06T02:53:04;1.52;;;0.40;;
24751;SDS011;27246;52.376;4.628;2022-08-06T02:58:27;1.77;;;0.57;;
24751;SDS011;27246;52.376;4.628;2022-08-06T03:03:41;2.95;;;0.88;;
24751;SDS011;27246;52.376;4.628;2022-08-06T03:08:56;1.92;;;0.50;;
24751;SDS011;27246;52.376;4.628;2022-08-06T03:14:01;1.45;;;0.57;;
24751;SDS011;27246;52.376;4.628;2022-08-06T03:19:25;2.65;;;0.43;;
24751;SDS011;27246;52.376;4.628;2022-08-06T03:24:47;3.17;;;0.85;;
24751;SDS011;27246;52.376;4.628;2022-08-06T03:29:57;2.72;;;0.60;;
24751;SDS011;27246;52.376;4.628;2022-08-06T03:35:02;2.35;;;0.82;;
24751;SDS011;27246;52.376;4.628;2022-08-06T03:40:05;2.28;;;0.80;;
24751;SDS011;27246;52.376;4.628;2022-08-06T03:45:11;3.60;;;0.80;;
24751;SDS011;27246;52.376;4.628;2022-08-06T03:50:34;2.35;;;0.75;;
24751;SDS011;27246;52.376;4.628;2022-08-06T03:55:46;1.65;;;0.60;;
24751;SDS011;27246;52.376;4.628;2022-08-06T04:00:59;3.17;;;0.60;;
24751;SDS011;27246;52.376;4.628;2022-08-06T04:06:04;1.90;;;0.73;;
24751;SDS011;27246;52.376;4.628;2022-08-06T04:11:20;2.40;;;0.60;;
24751;SDS011;27246;52.376;4.628;2022-08-06T04:16:43;3.72;;;1.48;;
24751;SDS011;27246;52.376;4.628;2022-08-06T04:21:46;3.67;;;0.68;;
24751;SDS011;27246;52.376;4.628;2022-08-06T04:27:08;3.20;;;0.60;;
24751;SDS011;27246;52.376;4.628;2022-08-06T04:32:18;1.67;;;0.57;;
24751;SDS011;27246;52.376;4.628;2022-08-06T04:37:32;1.33;;;0.65;;
24751;SDS011;27246;52.376;4.628;2022-08-06T04:42:40;1.95;;;0.60;;
24751;SDS011;27246;52.376;4.628;2022-08-06T04:47:45;0.95;;;0.52;;
24751;SDS011;27246;52.376;4.628;2022-08-06T04:52:47;0.85;;;0.40;;
24751;SDS011;27246;52.376;4.628;2022-08-06T04:57:51;2.78;;;0.60;;
24751;SDS011;27246;52.376;4.628;2022-08-06T05:03:03;2.17;;;0.95;;
24751;SDS011;27246;52.376;4.628;2022-08-06T05:08:06;1.15;;;0.40;;
24751;SDS011;27246;52.376;4.628;2022-08-06T05:13:14;6.38;;;4.63;;
24751;SDS011;27246;52.376;4.628;2022-08-06T05:18:40;2.10;;;0.80;;
24751;SDS011;27246;52.376;4.628;2022-08-06T05:24:05;0.90;;;0.60;;
24751;SDS011;27246;52.376;4.628;2022-08-06T05:29:07;2.47;;;0.82;;
24751;SDS011;27246;52.376;4.628;2022-08-06T05:34:11;2.72;;;0.60;;
24751;SDS011;27246;52.376;4.628;2022-08-06T05:39:14;0.90;;;0.70;;
24751;SDS011;27246;52.376;4.628;2022-08-06T05:44:35;2.97;;;0.55;;
24751;SDS011;27246;52.376;4.628;2022-08-06T05:49:52;2.50;;;0.88;;
24751;SDS011;27246;52.376;4.628;2022-08-06T05:55:05;1.80;;;0.77;;
24751;SDS011;27246;52.376;4.628;2022-08-06T06:00:12;3.72;;;0.80;;
24751;SDS011;27246;52.376;4.628;2022-08-06T06:05:37;1.70;;;0.55;;
24751;SDS011;27246;52.376;4.628;2022-08-06T06:11:00;2.42;;;0.80;;
24751;SDS011;27246;52.376;4.628;2022-08-06T06:21:41;0.77;;;0.40;;
24751;SDS011;27246;52.376;4.628;2022-08-06T06:32:14;1.05;;;0.70;;
24751;SDS011;27246;52.376;4.628;2022-08-06T06:42:46;1.10;;;0.43;;
24751;SDS011;27246;52.376;4.628;2022-08-06T06:48:02;1.35;;;0.70;;
24751;SDS011;27246;52.376;4.628;2022-08-06T06:53:11;3.17;;;0.60;;
24751;SDS011;27246;52.376;4.628;2022-08-06T06:58:25;4.00;;;0.95;;
24751;SDS011;27246;52.376;4.628;2022-08-06T07:03:48;0.68;;;0.20;;
24751;SDS011;27246;52.376;4.628;2022-08-06T07:08:56;0.60;;;0.50;;
24751;SDS011;27246;52.376;4.628;2022-08-06T07:13:58;1.52;;;0.40;;
24751;SDS011;27246;52.376;4.628;2022-08-06T07:19:03;0.88;;;0.20;;
24751;SDS011;27246;52.376;4.628;2022-08-06T07:24:11;1.10;;;0.32;;
24751;SDS011;27246;52.376;4.628;2022-08-06T07:29:34;0.75;;;0.30;;
24751;SDS011;27246;52.376;4.628;2022-08-06T07:34:56;2.03;;;0.32;;
24751;SDS011;27246;52.376;4.628;2022-08-06T07:39:59;0.65;;;0.28;;
24751;SDS011;27246;52.376;4.628;2022-08-06T07:45:03;2.47;;;0.30;;
24751;SDS011;27246;52.376;4.628;2022-08-06T07:50:17;0.68;;;0.20;;
24751;SDS011;27246;52.376;4.628;2022-08-06T07:55:24;0.80;;;0.40;;
24751;SDS011;27246;52.376;4.628;2022-08-06T08:00:40;1.08;;;0.30;;
24751;SDS011;27246;52.376;4.628;2022-08-06T08:11:11;0.65;;;0.22;;
24751;SDS011;27246;52.376;4.628;2022-08-06T08:16:16;2.33;;;0.50;;
24751;SDS011;27246;52.376;4.628;2022-08-06T08:21:20;1.80;;;0.40;;
24751;SDS011;27246;52.376;4.628;2022-08-06T08:26:22;0.50;;;0.28;;
24751;SDS011;27246;52.376;4.628;2022-08-06T08:31:25;2.90;;;0.40;;
24751;SDS011;27246;52.376;4.628;2022-08-06T08:36:27;0.30;;;0.30;;
24751;SDS011;27246;52.376;4.628;2022-08-06T08:41:32;2.50;;;0.40;;
24751;SDS011;27246;52.376;4.628;2022-08-06T08:46:49;0.63;;;0.40;;
24751;SDS011;27246;52.376;4.628;2022-08-06T08:51:58;1.98;;;0.38;;
24751;SDS011;27246;52.376;4.628;2022-08-06T08:57:03;0.20;;;0.20;;
24751;SDS011;27246;52.376;4.628;2022-08-06T09:02:25;0.47;;;0.20;;
24751;SDS011;27246;52.376;4.628;2022-08-06T09:07:28;3.08;;;0.40;;
24751;SDS011;27246;52.376;4.628;2022-08-06T09:12:37;1.20;;;0.40;;
24751;SDS011;27246;52.376;4.628;2022-08-06T09:17:48;1.35;;;0.40;;
24751;SDS011;27246;52.376;4.628;2022-08-06T09:23:10;1.63;;;0.40;;
24751;SDS011;27246;52.376;4.628;2022-08-06T09:28:33;1.10;;;0.20;;
24751;SDS011;27246;52.376;4.628;2022-08-06T09:33:55;0.73;;;0.38;;
24751;SDS011;27246;52.376;4.628;2022-08-06T09:39:35;1.73;;;0.30;;
24751;SDS011;27246;52.376;4.628;2022-08-06T09:45:06;1.85;;;0.25;;
24751;SDS011;27246;52.376;4.628;2022-08-06T09:50:34;1.10;;;0.32;;
24751;SDS011;27246;52.376;4.628;2022-08-06T09:55:44;2.30;;;0.40;;
24751;SDS011;27246;52.376;4.628;2022-08-06T10:00:46;2.42;;;0.25;;
24751;SDS011;27246;52.376;4.628;2022-08-06T10:06:04;3.90;;;0.40;;
24751;SDS011;27246;52.376;4.628;2022-08-06T10:16:17;1.23;;;0.43;;
24751;SDS011;27246;52.376;4.628;2022-08-06T10:21:22;1.40;;;0.20;;
24751;SDS011;27246;52.376;4.628;2022-08-06T10:26:28;2.60;;;0.60;;
24751;SDS011;27246;52.376;4.628;2022-08-06T10:31:35;1.80;;;0.40;;
24751;SDS011;27246;52.376;4.628;2022-08-06T10:36:43;1.95;;;0.30;;
24751;SDS011;27246;52.376;4.628;2022-08-06T10:41:49;0.75;;;0.43;;
24751;SDS011;27246;52.376;4.628;2022-08-06T10:47:06;0.40;;;0.30;;
24751;SDS011;27246;52.376;4.628;2022-08-06T10:52:11;1.88;;;0.47;;
24751;SDS011;27246;52.376;4.628;2022-08-06T10:57:16;1.23;;;0.15;;
24751;SDS011;27246;52.376;4.628;2022-08-06T11:13:58;1.63;;;0.30;;
24751;SDS011;27246;52.376;4.628;2022-08-06T11:19:15;0.70;;;0.22;;
24751;SDS011;27246;52.376;4.628;2022-08-06T11:24:23;0.85;;;0.40;;
24751;SDS011;27246;52.376;4.628;2022-08-06T11:29:24;1.20;;;0.30;;
24751;SDS011;27246;52.376;4.628;2022-08-06T11:34:46;1.08;;;0.43;;
24751;SDS011;27246;52.376;4.628;2022-08-06T11:40:05;0.32;;;0.20;;
24751;SDS011;27246;52.376;4.628;2022-08-06T11:45:08;0.57;;;0.20;;
24751;SDS011;27246;52.376;4.628;2022-08-06T11:50:31;0.20;;;0.20;;
24751;SDS011;27246;52.376;4.628;2022-08-06T11:55:33;0.65;;;0.35;;
24751;SDS011;27246;52.376;4.628;2022-08-06T12:01:10;0.95;;;0.30;;
24751;SDS011;27246;52.376;4.628;2022-08-06T12:06:32;0.63;;;0.25;;
24751;SDS011;27246;52.376;4.628;2022-08-06T12:11:33;1.15;;;0.30;;
24751;SDS011;27246;52.376;4.628;2022-08-06T12:16:38;0.57;;;0.20;;
24751;SDS011;27246;52.376;4.628;2022-08-06T12:21:44;0.63;;;0.20;;
24751;SDS011;27246;52.376;4.628;2022-08-06T12:26:56;0.52;;;0.20;;
24751;SDS011;27246;52.376;4.628;2022-08-06T12:31:59;1.52;;;0.73;;
24751;SDS011;27246;52.376;4.628;2022-08-06T12:37:01;0.80;;;0.30;;
24751;SDS011;27246;52.376;4.628;2022-08-06T12:42:03;0.30;;;0.20;;
24751;SDS011;27246;52.376;4.628;2022-08-06T12:47:15;2.47;;;0.52;;
24751;SDS011;27246;52.376;4.628;2022-08-06T12:52:38;0.55;;;0.20;;
24751;SDS011;27246;52.376;4.628;2022-08-06T12:57:42;0.77;;;0.30;;
24751;SDS011;27246;52.376;4.628;2022-08-06T13:02:59;1.80;;;0.57;;
24751;SDS011;27246;52.376;4.628;2022-08-06T13:08:02;2.38;;;0.30;;
24751;SDS011;27246;52.376;4.628;2022-08-06T13:13:07;0.43;;;0.30;;
24751;SDS011;27246;52.376;4.628;2022-08-06T13:18:31;0.50;;;0.28;;
24751;SDS011;27246;52.376;4.628;2022-08-06T13:23:51;1.95;;;0.40;;
24751;SDS011;27246;52.376;4.628;2022-08-06T13:29:07;0.45;;;0.30;;
24751;SDS011;27246;52.376;4.628;2022-08-06T13:34:49;0.82;;;0.25;;
24751;SDS011;27246;52.376;4.628;2022-08-06T13:39:53;0.90;;;0.30;;
24751;SDS011;27246;52.376;4.628;2022-08-06T13:44:55;0.20;;;0.20;;
24751;SDS011;27246;52.376;4.628;2022-08-06T13:49:59;2.38;;;0.30;;
24751;SDS011;27246;52.376;4.628;2022-08-06T13:55:04;0.82;;;0.20;;
24751;SDS011;27246;52.376;4.628;2022-08-06T14:00:10;1.05;;;0.20;;
24751;SDS011;27246;52.376;4.628;2022-08-06T14:05:16;0.70;;;0.40;;
24751;SDS011;27246;52.376;4.628;2022-08-06T14:10:23;9.02;;;5.43;;
24751;SDS011;27246;52.376;4.628;2022-08-06T14:15:33;2.22;;;1.00;;
24751;SDS011;27246;52.376;4.628;2022-08-06T14:20:42;1.58;;;0.85;;
24751;SDS011;27246;52.376;4.628;2022-08-06T14:25:44;0.93;;;0.93;;
24751;SDS011;27246;52.376;4.628;2022-08-06T14:31:03;1.58;;;0.90;;
24751;SDS011;27246;52.376;4.628;2022-08-06T14:42:15;2.30;;;0.68;;
24751;SDS011;27246;52.376;4.628;2022-08-06T14:47:48;1.55;;;0.80;;
24751;SDS011;27246;52.376;4.628;2022-08-06T14:53:00;1.50;;;0.60;;
24751;SDS011;27246;52.376;4.628;2022-08-06T14:58:03;0.80;;;0.65;;
24751;SDS011;27246;52.376;4.628;2022-08-06T15:03:11;1.77;;;0.77;;
24751;SDS011;27246;52.376;4.628;2022-08-06T15:08:15;2.33;;;0.70;;
24751;SDS011;27246;52.376;4.628;2022-08-06T15:13:16;1.05;;;0.60;;
24751;SDS011;27246;52.376;4.628;2022-08-06T15:18:20;0.55;;;0.52;;
24751;SDS011;27246;52.376;4.628;2022-08-06T15:23:42;0.93;;;0.50;;
24751;SDS011;27246;52.376;4.628;2022-08-06T15:28:55;3.65;;;0.60;;
24751;SDS011;27246;52.376;4.628;2022-08-06T15:33:56;1.45;;;0.40;;
24751;SDS011;27246;52.376;4.628;2022-08-06T15:39:06;1.55;;;0.47;;
24751;SDS011;27246;52.376;4.628;2022-08-06T15:44:10;2.65;;;0.73;;
24751;SDS011;27246;52.376;4.628;2022-08-06T15:49:13;1.27;;;0.47;;
24751;SDS011;27246;52.376;4.628;2022-08-06T15:54:21;2.35;;;0.60;;
24751;SDS011;27246;52.376;4.628;2022-08-06T15:59:22;1.15;;;0.55;;
24751;SDS011;27246;52.376;4.628;2022-08-06T16:04:44;0.65;;;0.60;;
24751;SDS011;27246;52.376;4.628;2022-08-06T16:09:48;1.63;;;0.77;;
24751;SDS011;27246;52.376;4.628;2022-08-06T16:15:04;1.73;;;0.50;;
24751;SDS011;27246;52.376;4.628;2022-08-06T16:20:09;1.35;;;0.77;;
24751;SDS011;27246;52.376;4.628;2022-08-06T16:25:21;1.20;;;0.70;;
24751;SDS011;27246;52.376;4.628;2022-08-06T16:30:24;4.25;;;0.70;;
24751;SDS011;27246;52.376;4.628;2022-08-06T16:35:25;0.65;;;0.65;;
24751;SDS011;27246;52.376;4.628;2022-08-06T16:40:33;1.52;;;0.85;;
24751;SDS011;27246;52.376;4.628;2022-08-06T16:45:35;0.93;;;0.80;;
24751;SDS011;27246;52.376;4.628;2022-08-06T16:50:38;1.58;;;1.30;;
24751;SDS011;27246;52.376;4.628;2022-08-06T16:55:41;1.02;;;0.60;;
24751;SDS011;27246;52.376;4.628;2022-08-06T17:00:45;0.65;;;0.52;;
24751;SDS011;27246;52.376;4.628;2022-08-06T17:06:08;3.40;;;0.90;;
24751;SDS011;27246;52.376;4.628;2022-08-06T17:11:09;1.27;;;0.70;;
24751;SDS011;27246;52.376;4.628;2022-08-06T17:16:31;2.00;;;1.05;;
24751;SDS011;27246;52.376;4.628;2022-08-06T17:21:33;2.00;;;1.40;;
24751;SDS011;27246;52.376;4.628;2022-08-06T17:26:54;4.30;;;1.60;;
24751;SDS011;27246;52.376;4.628;2022-08-06T17:31:56;2.42;;;0.60;;
24751;SDS011;27246;52.376;4.628;2022-08-06T17:36:59;1.55;;;1.15;;
24751;SDS011;27246;52.376;4.628;2022-08-06T17:42:21;1.35;;;1.17;;
24751;SDS011;27246;52.376;4.628;2022-08-06T17:47:26;1.27;;;0.80;;
24751;SDS011;27246;52.376;4.628;2022-08-06T17:52:49;1.85;;;0.82;;
24751;SDS011;27246;52.376;4.628;2022-08-06T17:57:53;1.30;;;0.90;;
24751;SDS011;27246;52.376;4.628;2022-08-06T18:03:15;1.95;;;1.65;;
24751;SDS011;27246;52.376;4.628;2022-08-06T18:08:36;2.45;;;1.73;;
24751;SDS011;27246;52.376;4.628;2022-08-06T18:13:38;2.38;;;1.52;;
24751;SDS011;27246;52.376;4.628;2022-08-06T18:18:55;1.70;;;1.20;;
24751;SDS011;27246;52.376;4.628;2022-08-06T18:23:58;2.13;;;1.27;;
24751;SDS011;27246;52.376;4.628;2022-08-06T18:29:01;1.92;;;1.08;;
24751;SDS011;27246;52.376;4.628;2022-08-06T18:34:07;1.40;;;0.95;;
24751;SDS011;27246;52.376;4.628;2022-08-06T18:39:19;5.07;;;1.60;;
24751;SDS011;27246;52.376;4.628;2022-08-06T18:44:40;2.05;;;0.70;;
24751;SDS011;27246;52.376;4.628;2022-08-06T18:49:46;2.80;;;0.75;;
24751;SDS011;27246;52.376;4.628;2022-08-06T18:54:52;2.72;;;1.10;;
24751;SDS011;27246;52.376;4.628;2022-08-06T18:59:58;3.33;;;1.00;;
24751;SDS011;27246;52.376;4.628;2022-08-06T19:05:02;0.98;;;0.75;;
24751;SDS011;27246;52.376;4.628;2022-08-06T19:10:06;0.80;;;0.80;;
24751;SDS011;27246;52.376;4.628;2022-08-06T19:15:15;1.85;;;1.00;;
24751;SDS011;27246;52.376;4.628;2022-08-06T19:20:20;1.30;;;0.82;;
24751;SDS011;27246;52.376;4.628;2022-08-06T19:25:29;1.63;;;1.10;;
24751;SDS011;27246;52.376;4.628;2022-08-06T19:30:51;1.17;;;1.08;;
24751;SDS011;27246;52.376;4.628;2022-08-06T19:35:52;2.38;;;1.40;;
24751;SDS011;27246;52.376;4.628;2022-08-06T19:41:07;1.58;;;1.05;;
24751;SDS011;27246;52.376;4.628;2022-08-06T19:46:10;2.83;;;1.20;;
24751;SDS011;27246;52.376;4.628;2022-08-06T19:51:32;0.90;;;0.90;;
24751;SDS011;27246;52.376;4.628;2022-08-06T19:56:55;4.05;;;1.50;;
24751;SDS011;27246;52.376;4.628;2022-08-06T20:01:56;1.58;;;1.10;;
24751;SDS011;27246;52.376;4.628;2022-08-06T20:07:16;1.70;;;1.10;;
24751;SDS011;27246;52.376;4.628;2022-08-06T20:12:35;1.73;;;1.40;;
24751;SDS011;27246;52.376;4.628;2022-08-06T20:17:40;1.17;;;1.00;;
24751;SDS011;27246;52.376;4.628;2022-08-06T20:22:49;2.67;;;1.30;;
24751;SDS011;27246;52.376;4.628;2022-08-06T20:27:51;2.92;;;1.20;;
24751;SDS011;27246;52.376;4.628;2022-08-06T20:33:12;1.60;;;1.00;;
24751;SDS011;27246;52.376;4.628;2022-08-06T20:38:19;2.45;;;1.80;;
24751;SDS011;27246;52.376;4.628;2022-08-06T20:43:36;2.33;;;1.60;;
24751;SDS011;27246;52.376;4.628;2022-08-06T20:48:57;2.05;;;1.33;;
24751;SDS011;27246;52.376;4.628;2022-08-06T20:54:00;2.97;;;1.92;;
24751;SDS011;27246;52.376;4.628;2022-08-06T20:59:17;2.17;;;1.90;;
24751;SDS011;27246;52.376;4.628;2022-08-06T21:04:19;1.92;;;1.52;;
24751;SDS011;27246;52.376;4.628;2022-08-06T21:09:41;3.60;;;1.75;;
24751;SDS011;27246;52.376;4.628;2022-08-06T21:14:46;2.63;;;1.70;;
24751;SDS011;27246;52.376;4.628;2022-08-06T21:19:48;3.40;;;2.50;;
24751;SDS011;27246;52.376;4.628;2022-08-06T21:25:09;2.58;;;2.08;;
24751;SDS011;27246;52.376;4.628;2022-08-06T21:30:19;4.10;;;2.72;;
24751;SDS011;27246;52.376;4.628;2022-08-06T21:35:31;3.88;;;2.88;;
24751;SDS011;27246;52.376;4.628;2022-08-06T21:40:34;2.55;;;2.35;;
24751;SDS011;27246;52.376;4.628;2022-08-06T21:45:36;3.35;;;2.45;;
24751;SDS011;27246;52.376;4.628;2022-08-06T21:50:58;3.50;;;2.97;;
24751;SDS011;27246;52.376;4.628;2022-08-06T21:56:00;3.30;;;2.95;;
24751;SDS011;27246;52.376;4.628;2022-08-06T22:01:22;3.30;;;3.00;;
24751;SDS011;27246;52.376;4.628;2022-08-06T22:06:44;4.35;;;3.33;;
24751;SDS011;27246;52.376;4.628;2022-08-06T22:11:54;6.47;;;4.80;;
24751;SDS011;27246;52.376;4.628;2022-08-06T22:17:16;6.63;;;5.28;;
24751;SDS011;27246;52.376;4.628;2022-08-06T22:22:38;4.63;;;3.20;;
24751;SDS011;27246;52.376;4.628;2022-08-06T22:27:40;3.65;;;3.17;;
24751;SDS011;27246;52.376;4.628;2022-08-06T22:32:54;3.97;;;3.00;;
24751;SDS011;27246;52.376;4.628;2022-08-06T22:37:56;4.40;;;2.70;;
24751;SDS011;27246;52.376;4.628;2022-08-06T22:43:19;6.88;;;5.35;;
24751;SDS011;27246;52.376;4.628;2022-08-06T22:48:30;5.65;;;4.95;;
24751;SDS011;27246;52.376;4.628;2022-08-06T22:53:37;6.13;;;4.70;;
24751;SDS011;27246;52.376;4.628;2022-08-06T22:58:59;4.68;;;3.90;;
24751;SDS011;27246;52.376;4.628;2022-08-06T23:04:20;4.18;;;3.63;;
24751;SDS011;27246;52.376;4.628;2022-08-06T23:09:26;4.57;;;3.33;;
24751;SDS011;27246;52.376;4.628;2022-08-06T23:14:30;3.80;;;3.45;;
24751;SDS011;27246;52.376;4.628;2022-08-06T23:19:33;3.22;;;2.88;;
24751;SDS011;27246;52.376;4.628;2022-08-06T23:24:55;5.63;;;4.05;;
24751;SDS011;27246;52.376;4.628;2022-08-06T23:30:17;7.05;;;4.22;;
24751;SDS011;27246;52.376;4.628;2022-08-06T23:35:20;4.57;;;4.10;;
24751;SDS011;27246;52.376;4.628;2022-08-06T23:40:38;4.82;;;4.35;;
24751;SDS011;27246;52.376;4.628;2022-08-06T23:45:39;4.20;;;3.80;;
